Historique des mesures à Cassis (13260), France
Quotidien Résumé Décembre 28, 2017 Unités:  Métrique    US   Métrique/US
« Précédent (Jour)
Suivant (Jour) »
Quotidien Hebdomadaire Mensuel Annuel Période au choix
  Maximum: Minimum: Moyenne:
Température: TemperatureC °C 4.9 °C 5.7 °C
Point de rosée: DewpointC °C -4.3 °C -3.2 °C
Humidité: Humidity % 44 % 50 %
Vitesse du vent: 0 km/h 0 km/h 20.9 km/h
Rafales: 0 km/h - -
Vent:- - SSE
Pression: PressurehPa hPa 994.1 hPa -
Précipitations: 0.0 mm    
Historical Graphs
 
 
Mesures pour : Décembre 28, 2017
Heure Temperature Point de rosée Pression Vent Vitesse du vent Rafales Humidité Pluie (par heure) Conditions
TemperatureC °C DewpointC °C PressurehPa hPa Calm     Humidity % HourlyPrecipMM mm SoftwareType W/m2
00:10 6.4 °C -2.3 °C 994.1 hPa WNW 35.2 km/h 42.2 km/h 54 % 0.0 mm open2300-1.11 W/m2
01:10 6.2 °C -1.7 °C 994.1 hPa Calm   7.6 km/h 57 % 0.0 mm open2300-1.11 W/m2
02:10 5.8 °C -1.9 °C 994.5 hPa WNW 36 km/h 56.2 km/h 58 % 0.0 mm open2300-1.11 W/m2
03:10 5.7 °C -2.4 °C 995.1 hPa Calm   31.4 km/h 56 % 0.0 mm open2300-1.11 W/m2
04:10 5.5 °C -2.9 °C 995.8 hPa Calm   6.4 km/h 55 % 0.0 mm open2300-1.11 W/m2
05:10 5.5 °C -2.9 °C 995.8 hPa NNW 5.6 km/h 5.6 km/h 55 % 0.0 mm open2300-1.11 W/m2
06:10 5.4 °C -3.7 °C 996.2 hPa North 17.9 km/h 30.7 km/h 52 % 0.0 mm open2300-1.11 W/m2
07:10 5.0 °C -3.6 °C 996.5 hPa WNW 37 km/h 57.9 km/h 54 % 0.0 mm open2300-1.11 W/m2
08:10 4.9 °C -3.7 °C 997.2 hPa North 19.6 km/h 23.8 km/h 54 % 0.0 mm open2300-1.11 W/m2
09:10 5.0 °C -3.1 °C 997.9 hPa NW 19.6 km/h 20.9 km/h 56 % 0.0 mm open2300-1.11 W/m2
10:11 5.6 °C -3.1 °C 998.5 hPa North 15.6 km/h 39.4 km/h 54 % 0.0 mm open2300-1.11 W/m2
11:10 6.3 °C -3.3 °C 998.9 hPa NNE 11.6 km/h 43.5 km/h 50 % 0.0 mm open2300-1.11 W/m2
12:10 6.9 °C -3.1 °C 998.2 hPa North 19.2 km/h 63.7 km/h 49 % 0.0 mm open2300-1.11 W/m2
13:10 7.3 °C -3.3 °C 998.2 hPa NNW 27.7 km/h 46.8 km/h 47 % 0.0 mm open2300-1.11 W/m2
14:10 7.4 °C -3.6 °C 998.5 hPa NNW 23 km/h 60.8 km/h 46 % 0.0 mm open2300-1.11 W/m2
15:10 7.5 °C -4.1 °C 999.2 hPa NNW 26.7 km/h 36.5 km/h 44 % 0.0 mm open2300-1.11 W/m2
16:10 7.1 °C -4.1 °C 999.5 hPa WNW 24.8 km/h 30.7 km/h 45 % 0.0 mm open2300-1.11 W/m2
17:10 6.6 °C -4.3 °C 1000.6 hPa North 37 km/h 37 km/h 46 % 0.0 mm open2300-1.11 W/m2
18:10 6.2 °C -3.7 °C 1001.6 hPa NNE 28.5 km/h 31.9 km/h 49 % 0.0 mm open2300-1.11 W/m2
19:10 5.9 °C -4.0 °C 1002.6 hPa NNE 15.6 km/h 16.3 km/h 49 % 0.0 mm open2300-1.11 W/m2
20:10 5.4 °C -3.9 °C 1002.6 hPa North 22 km/h 60.8 km/h 51 % 0.0 mm open2300-1.11 W/m2
21:10 5.3 °C -3.8 °C 1003.6 hPa NW 47.3 km/h 47.3 km/h 52 % 0.0 mm open2300-1.11 W/m2
22:10 5.1 °C -3.5 °C 1004.6 hPa North 29 km/h 29 km/h 54 % 0.0 mm open2300-1.11 W/m2
23:10 4.9 °C -3.4 °C 1005.3 hPa North 24.3 km/h 24.3 km/h 55 % 0.0 mm open2300-1.11 W/m2
Observations météo à CASSIS
WU-History script by Weather Underground - 1 mb